Time;durP1;ratioP1;P1;durP2;ratioP2;P2;SDS_P1;SDS_P2;PMS_P1;PMS_P2;Temp;Humidity;BMP_temperature;BMP_pressure;BME280_temperature;BME280_humidity;BME280_pressure;Samples;Min_cycle;Max_cycle;Signal;HPM_P1;HPM_P2
2023/05/07 00:01:17;;;;;;;8.73;6.87;;;;;;;;;;5059336;28;20405;-44
2023/05/07 00:03:44;;;;;;;9.17;7.27;;;;;;;;;;5053435;27;20432;-44
2023/05/07 00:06:12;;;;;;;7.00;6.30;;;;;;;;;;5066537;28;20412;-44
2023/05/07 00:08:38;;;;;;;10.10;7.80;;;;;;;;;;5063433;28;20427;-44
2023/05/07 00:11:05;;;;;;;12.93;9.10;;;;;;;;;;5056892;27;20789;-44
2023/05/07 00:13:35;;;;;;;13.20;10.00;;;;;;;;;;5052161;28;20469;-44
2023/05/07 00:16:02;;;;;;;9.83;8.50;;;;;;;;;;5060665;27;20424;-44
2023/05/07 00:18:28;;;;;;;10.20;8.17;;;;;;;;;;5058897;28;20417;-46
2023/05/07 00:20:54;;;;;;;9.90;8.47;;;;;;;;;;5058864;28;20399;-45
2023/05/07 00:23:20;;;;;;;8.27;7.23;;;;;;;;;;5063519;27;20404;-44
2023/05/07 00:25:46;;;;;;;9.20;7.80;;;;;;;;;;5062581;28;20521;-44
2023/05/07 00:28:12;;;;;;;8.57;7.20;;;;;;;;;;5056337;27;20395;-44
2023/05/07 00:30:38;;;;;;;9.77;8.00;;;;;;;;;;5056339;27;20441;-44
2023/05/07 00:33:04;;;;;;;9.63;7.67;;;;;;;;;;5060398;28;20785;-44
2023/05/07 00:35:30;;;;;;;8.47;7.67;;;;;;;;;;5060741;27;20435;-44
2023/05/07 00:37:56;;;;;;;10.00;8.60;;;;;;;;;;5057255;28;20402;-44
2023/05/07 00:40:22;;;;;;;16.93;9.30;;;;;;;;;;5061718;27;20387;-45
2023/05/07 00:42:48;;;;;;;10.33;8.90;;;;;;;;;;5060543;28;20391;-44
2023/05/07 00:45:14;;;;;;;10.97;8.57;;;;;;;;;;5046591;28;20413;-45
2023/05/07 00:47:41;;;;;;;11.30;8.67;;;;;;;;;;5061408;27;20391;-45
2023/05/07 00:50:07;;;;;;;11.03;8.57;;;;;;;;;;5059561;27;20449;-45
2023/05/07 00:52:33;;;;;;;11.57;10.10;;;;;;;;;;5059724;27;20557;-44
2023/05/07 00:55:03;;;;;;;10.07;8.77;;;;;;;;;;5059991;28;20981;-45
2023/05/07 00:57:29;;;;;;;10.63;9.13;;;;;;;;;;5058704;27;20915;-44
2023/05/07 00:59:58;;;;;;;9.13;7.67;;;;;;;;;;5059178;28;20487;-44
2023/05/07 01:02:24;;;;;;;17.00;11.20;;;;;;;;;;5057837;28;20421;-45
2023/05/07 01:04:49;;;;;;;15.10;9.90;;;;;;;;;;5056684;28;20449;-44
2023/05/07 01:07:16;;;;;;;12.47;10.97;;;;;;;;;;5061662;27;20428;-44
2023/05/07 01:09:42;;;;;;;11.00;9.80;;;;;;;;;;5058249;28;20420;-45
2023/05/07 01:12:09;;;;;;;15.47;11.10;;;;;;;;;;5058736;28;20531;-44
2023/05/07 01:14:35;;;;;;;11.03;9.23;;;;;;;;;;5057991;28;20417;-44
2023/05/07 01:17:01;;;;;;;13.63;9.37;;;;;;;;;;5059701;28;20423;-44
2023/05/07 01:19:30;;;;;;;13.37;11.30;;;;;;;;;;5062364;27;20410;-44
2023/05/07 01:22:01;;;;;;;12.27;9.73;;;;;;;;;;5062146;28;20419;-44
2023/05/07 01:24:29;;;;;;;15.17;9.50;;;;;;;;;;5057407;28;21064;-44
2023/05/07 01:26:57;;;;;;;14.57;11.37;;;;;;;;;;5054075;27;20508;-44
2023/05/07 01:29:24;;;;;;;12.27;9.83;;;;;;;;;;5061472;28;20436;-44
2023/05/07 01:31:53;;;;;;;14.17;10.43;;;;;;;;;;5058803;28;20449;-44
2023/05/07 01:34:20;;;;;;;12.50;9.10;;;;;;;;;;5061060;28;20405;-44
2023/05/07 01:36:48;;;;;;;11.17;9.53;;;;;;;;;;5051918;28;20395;-46
2023/05/07 01:39:15;;;;;;;12.10;9.57;;;;;;;;;;5050006;28;20924;-44
2023/05/07 01:41:43;;;;;;;10.20;9.20;;;;;;;;;;5061338;27;20772;-44
2023/05/07 01:44:10;;;;;;;11.50;9.30;;;;;;;;;;5058045;27;20504;-46
2023/05/07 01:46:37;;;;;;;13.53;10.17;;;;;;;;;;5061833;28;20412;-44
2023/05/07 01:49:05;;;;;;;12.60;10.07;;;;;;;;;;5057039;28;20405;-44
2023/05/07 01:51:32;;;;;;;16.93;10.00;;;;;;;;;;5058148;28;20732;-44
2023/05/07 01:53:58;;;;;;;13.83;10.57;;;;;;;;;;5058861;28;20426;-44
2023/05/07 01:56:26;;;;;;;14.47;10.63;;;;;;;;;;5057615;28;20984;-44
2023/05/07 01:58:52;;;;;;;11.63;10.33;;;;;;;;;;5056948;28;20432;-44
2023/05/07 02:01:18;;;;;;;13.20;10.17;;;;;;;;;;5062561;28;20464;-44
2023/05/07 02:03:45;;;;;;;11.90;9.80;;;;;;;;;;5061290;28;20490;-44
2023/05/07 02:06:11;;;;;;;10.83;9.53;;;;;;;;;;5053891;27;20433;-44
2023/05/07 02:08:38;;;;;;;10.83;8.90;;;;;;;;;;5060780;27;20869;-44
2023/05/07 02:11:04;;;;;;;10.40;9.30;;;;;;;;;;5069252;27;20759;-45
2023/05/07 02:13:32;;;;;;;10.77;9.67;;;;;;;;;;5068743;27;20534;-45
2023/05/07 02:16:00;;;;;;;11.93;10.73;;;;;;;;;;5069098;27;20405;-45
2023/05/07 02:18:26;;;;;;;12.30;10.23;;;;;;;;;;5068988;28;20458;-45
2023/05/07 02:20:52;;;;;;;13.67;10.63;;;;;;;;;;5068780;28;20420;-47
2023/05/07 02:23:18;;;;;;;11.70;9.87;;;;;;;;;;5068663;28;20424;-44
2023/05/07 02:25:45;;;;;;;15.40;11.33;;;;;;;;;;5069104;27;20495;-44
2023/05/07 02:28:11;;;;;;;11.67;9.17;;;;;;;;;;5068908;28;20516;-44
2023/05/07 02:30:37;;;;;;;13.37;10.53;;;;;;;;;;5068965;27;20914;-44
2023/05/07 02:33:03;;;;;;;12.97;10.47;;;;;;;;;;5068509;28;20981;-44
2023/05/07 02:35:29;;;;;;;14.57;11.93;;;;;;;;;;5055979;28;20492;-44
2023/05/07 02:37:55;;;;;;;11.97;10.40;;;;;;;;;;5048041;28;20925;-44
2023/05/07 02:40:23;;;;;;;13.60;11.60;;;;;;;;;;5048851;28;20483;-44
2023/05/07 02:42:48;;;;;;;14.53;11.00;;;;;;;;;;5048429;28;20914;-44
2023/05/07 02:45:14;;;;;;;14.50;11.10;;;;;;;;;;5048771;28;20401;-45
2023/05/07 02:47:40;;;;;;;14.23;10.77;;;;;;;;;;5048705;28;20432;-45
2023/05/07 02:50:08;;;;;;;15.90;10.80;;;;;;;;;;5048635;28;20725;-43
2023/05/07 02:52:34;;;;;;;17.83;11.93;;;;;;;;;;5048480;28;20450;-44
2023/05/07 02:55:00;;;;;;;14.13;10.90;;;;;;;;;;5048604;28;20426;-44
2023/05/07 02:57:26;;;;;;;13.93;10.23;;;;;;;;;;5048626;28;20907;-44
2023/05/07 02:59:55;;;;;;;14.43;11.07;;;;;;;;;;5048580;28;20468;-44
2023/05/07 03:02:21;;;;;;;14.47;11.67;;;;;;;;;;5048370;28;20432;-46
2023/05/07 03:04:47;;;;;;;15.03;10.97;;;;;;;;;;5047343;28;20976;-44
2023/05/07 03:07:14;;;;;;;12.27;11.03;;;;;;;;;;5047565;28;20904;-44
2023/05/07 03:09:40;;;;;;;17.87;11.70;;;;;;;;;;5048568;28;20401;-44
2023/05/07 03:12:06;;;;;;;13.60;11.07;;;;;;;;;;5051464;28;20456;-43
2023/05/07 03:14:32;;;;;;;12.83;10.87;;;;;;;;;;5051758;28;20901;-44
2023/05/07 03:16:58;;;;;;;15.07;11.50;;;;;;;;;;5051834;28;20397;-44
2023/05/07 03:19:27;;;;;;;16.57;10.80;;;;;;;;;;5050528;28;20540;-44
2023/05/07 03:21:53;;;;;;;14.50;10.90;;;;;;;;;;5051919;28;20542;-44
2023/05/07 03:24:18;;;;;;;10.60;9.50;;;;;;;;;;5051704;28;20477;-44
2023/05/07 03:26:45;;;;;;;13.17;11.13;;;;;;;;;;5051728;28;20409;-44
2023/05/07 03:29:11;;;;;;;12.90;10.37;;;;;;;;;;5051832;28;20404;-43
2023/05/07 03:31:37;;;;;;;12.10;10.10;;;;;;;;;;5051543;28;20772;-44
2023/05/07 03:34:08;;;;;;;14.30;10.03;;;;;;;;;;5051789;28;20476;-44
2023/05/07 03:36:34;;;;;;;13.00;10.20;;;;;;;;;;5051802;28;20409;-43
2023/05/07 03:39:00;;;;;;;13.90;10.13;;;;;;;;;;5051722;28;20784;-44
2023/05/07 03:41:27;;;;;;;19.80;11.50;;;;;;;;;;5050700;28;20454;-45
2023/05/07 03:43:53;;;;;;;13.90;11.20;;;;;;;;;;5050399;27;20444;-43
2023/05/07 03:46:20;;;;;;;15.50;10.90;;;;;;;;;;5051398;28;20437;-44
2023/05/07 03:48:47;;;;;;;13.33;10.23;;;;;;;;;;5051368;28;20454;-43
2023/05/07 03:51:13;;;;;;;14.03;11.57;;;;;;;;;;5051418;28;20408;-43
2023/05/07 03:53:41;;;;;;;18.77;12.67;;;;;;;;;;5050958;28;20468;-43
2023/05/07 03:56:07;;;;;;;19.07;13.73;;;;;;;;;;5051272;28;20434;-44
2023/05/07 03:58:35;;;;;;;17.57;14.73;;;;;;;;;;5049015;28;20432;-44
2023/05/07 04:01:02;;;;;;;20.90;15.50;;;;;;;;;;5051269;28;20884;-43
2023/05/07 04:03:28;;;;;;;22.30;17.20;;;;;;;;;;5051014;28;20422;-44
2023/05/07 04:05:54;;;;;;;24.90;16.57;;;;;;;;;;5051320;28;20397;-44
2023/05/07 04:08:20;;;;;;;22.13;16.80;;;;;;;;;;5051477;28;20467;-44
2023/05/07 04:10:46;;;;;;;24.73;17.03;;;;;;;;;;5051226;28;20900;-44
2023/05/07 04:13:15;;;;;;;20.67;15.80;;;;;;;;;;5049917;28;20438;-46
2023/05/07 04:15:41;;;;;;;21.03;16.90;;;;;;;;;;5050853;28;20408;-44
2023/05/07 04:18:07;;;;;;;23.27;17.40;;;;;;;;;;5051165;28;20485;-45
2023/05/07 04:20:36;;;;;;;20.37;17.23;;;;;;;;;;5050323;28;20413;-47
2023/05/07 04:23:02;;;;;;;25.33;19.10;;;;;;;;;;5049395;28;20543;-44
2023/05/07 04:25:28;;;;;;;21.03;16.47;;;;;;;;;;5051034;28;20428;-44
2023/05/07 04:27:54;;;;;;;21.50;17.47;;;;;;;;;;5050641;28;20899;-43
2023/05/07 04:30:20;;;;;;;21.17;17.17;;;;;;;;;;5050891;28;20404;-44
2023/05/07 04:32:47;;;;;;;19.90;16.27;;;;;;;;;;5050490;27;20582;-44
2023/05/07 04:35:14;;;;;;;22.23;16.40;;;;;;;;;;5050751;28;20400;-43
2023/05/07 04:37:43;;;;;;;20.17;16.10;;;;;;;;;;5048893;28;20428;-44
2023/05/07 04:40:09;;;;;;;22.50;17.00;;;;;;;;;;5050525;27;20435;-43
2023/05/07 04:42:35;;;;;;;27.40;18.77;;;;;;;;;;5050322;28;20469;-44
2023/05/07 04:45:05;;;;;;;22.63;17.70;;;;;;;;;;5050757;28;20511;-44
2023/05/07 04:47:32;;;;;;;19.83;15.37;;;;;;;;;;5050556;28;20403;-44
2023/05/07 04:49:58;;;;;;;18.53;15.33;;;;;;;;;;5050679;28;20406;-44
2023/05/07 04:52:24;;;;;;;19.77;16.23;;;;;;;;;;5050299;28;20481;-43
2023/05/07 04:54:53;;;;;;;18.27;15.60;;;;;;;;;;5048388;28;20452;-44
2023/05/07 04:57:20;;;;;;;17.83;14.73;;;;;;;;;;5049352;28;20516;-43
2023/05/07 04:59:46;;;;;;;17.37;13.53;;;;;;;;;;5050473;28;20398;-45
2023/05/07 05:02:12;;;;;;;14.97;12.47;;;;;;;;;;5050459;28;20408;-44
2023/05/07 05:04:38;;;;;;;16.77;12.97;;;;;;;;;;5050665;28;20456;-44
2023/05/07 05:07:04;;;;;;;15.90;12.73;;;;;;;;;;5050304;28;20412;-43
2023/05/07 05:09:33;;;;;;;14.50;12.63;;;;;;;;;;5050183;28;20451;-44
2023/05/07 05:12:00;;;;;;;16.10;11.93;;;;;;;;;;5050090;28;20457;-44
2023/05/07 05:14:26;;;;;;;15.73;12.17;;;;;;;;;;5047802;27;20448;-44
2023/05/07 05:16:52;;;;;;;15.13;12.60;;;;;;;;;;5049964;28;20384;-44
2023/05/07 05:19:18;;;;;;;14.73;11.13;;;;;;;;;;5050142;28;20380;-45
2023/05/07 05:21:45;;;;;;;13.17;11.70;;;;;;;;;;5050072;28;20405;-44
2023/05/07 05:24:11;;;;;;;14.03;11.90;;;;;;;;;;5049584;28;20428;-44
2023/05/07 05:26:43;;;;;;;15.20;11.20;;;;;;;;;;5034303;28;20812;-44
2023/05/07 05:29:09;;;;;;;12.67;9.93;;;;;;;;;;5030047;28;20459;-44
2023/05/07 05:31:36;;;;;;;11.13;10.03;;;;;;;;;;5038391;28;20874;-45
2023/05/07 05:34:02;;;;;;;13.50;10.53;;;;;;;;;;5048150;28;20411;-44
2023/05/07 05:36:30;;;;;;;11.73;10.10;;;;;;;;;;5049865;28;20487;-44
2023/05/07 05:38:56;;;;;;;11.53;9.30;;;;;;;;;;5049609;28;20410;-44
2023/05/07 05:41:22;;;;;;;15.03;10.63;;;;;;;;;;5049458;28;20484;-44
2023/05/07 05:43:50;;;;;;;10.33;9.30;;;;;;;;;;5048889;28;21004;-44
2023/05/07 05:46:16;;;;;;;10.20;8.87;;;;;;;;;;5049096;28;20407;-44
2023/05/07 05:48:42;;;;;;;12.17;9.60;;;;;;;;;;5046940;28;20402;-44
2023/05/07 05:51:08;;;;;;;14.00;9.83;;;;;;;;;;5049259;28;20418;-44
2023/05/07 05:53:34;;;;;;;12.67;9.60;;;;;;;;;;5049142;28;20466;-44
2023/05/07 05:56:00;;;;;;;9.80;8.70;;;;;;;;;;5049376;28;20457;-44
2023/05/07 05:58:30;;;;;;;9.67;8.67;;;;;;;;;;5049374;28;20378;-44
2023/05/07 06:00:56;;;;;;;10.70;8.20;;;;;;;;;;5049388;28;20427;-44
2023/05/07 06:03:23;;;;;;;7.67;6.97;;;;;;;;;;5049143;28;20424;-44
2023/05/07 06:06:21;;;;;;;8.23;6.83;;;;;;;;;;5046876;28;20425;-44
2023/05/07 06:08:47;;;;;;;7.23;6.50;;;;;;;;;;5049261;28;20375;-44
2023/05/07 06:11:13;;;;;;;9.10;6.57;;;;;;;;;;5049851;28;20390;-44
2023/05/07 06:13:39;;;;;;;6.63;5.90;;;;;;;;;;5048853;28;20469;-44
2023/05/07 06:16:05;;;;;;;8.23;7.23;;;;;;;;;;5046974;28;20425;-44
2023/05/07 06:18:31;;;;;;;6.27;5.67;;;;;;;;;;5053241;28;20481;-45
2023/05/07 06:20:57;;;;;;;11.17;7.17;;;;;;;;;;5057190;28;20483;-46
2023/05/07 06:23:23;;;;;;;9.93;6.10;;;;;;;;;;5057310;28;20440;-44
2023/05/07 06:25:50;;;;;;;6.37;5.77;;;;;;;;;;5056590;28;20484;-45
2023/05/07 06:28:16;;;;;;;8.90;6.70;;;;;;;;;;5061970;28;20384;-45
2023/05/07 06:30:42;;;;;;;9.97;6.23;;;;;;;;;;5059741;28;20420;-44
2023/05/07 06:33:08;;;;;;;6.73;6.03;;;;;;;;;;5053927;27;20521;-44
2023/05/07 06:35:34;;;;;;;8.77;6.10;;;;;;;;;;5052716;27;20905;-44
2023/05/07 06:38:00;;;;;;;8.00;6.50;;;;;;;;;;5058228;28;20417;-44
2023/05/07 06:40:26;;;;;;;6.13;5.30;;;;;;;;;;5059011;27;20392;-44
2023/05/07 06:42:52;;;;;;;6.23;5.60;;;;;;;;;;5057245;27;20388;-44
2023/05/07 06:45:18;;;;;;;5.57;5.07;;;;;;;;;;5059559;27;20755;-44
2023/05/07 06:47:44;;;;;;;10.07;6.20;;;;;;;;;;5058186;28;20394;-44
2023/05/07 06:50:10;;;;;;;8.10;6.63;;;;;;;;;;5050563;27;20425;-44
2023/05/07 06:52:36;;;;;;;8.90;7.00;;;;;;;;;;5059379;27;20464;-44
2023/05/07 06:55:02;;;;;;;10.50;6.40;;;;;;;;;;5057176;27;20431;-46
2023/05/07 06:57:28;;;;;;;6.03;4.73;;;;;;;;;;5058187;27;20482;-44
2023/05/07 06:59:54;;;;;;;5.60;4.90;;;;;;;;;;5056296;28;20384;-44
2023/05/07 07:02:20;;;;;;;6.07;4.97;;;;;;;;;;5057984;27;20459;-44
2023/05/07 07:04:46;;;;;;;6.33;5.37;;;;;;;;;;5051136;28;20455;-44
2023/05/07 07:07:12;;;;;;;5.73;4.13;;;;;;;;;;5063576;28;20891;-44
2023/05/07 07:09:38;;;;;;;7.93;5.47;;;;;;;;;;5060583;28;20412;-44
2023/05/07 07:12:04;;;;;;;5.57;5.00;;;;;;;;;;5047652;27;20958;-44
2023/05/07 07:14:30;;;;;;;6.53;4.77;;;;;;;;;;5056262;27;20442;-45
2023/05/07 07:16:56;;;;;;;7.00;5.33;;;;;;;;;;5056756;28;20948;-45
2023/05/07 07:19:22;;;;;;;5.80;5.27;;;;;;;;;;5056331;28;20715;-45
2023/05/07 07:21:48;;;;;;;10.00;4.40;;;;;;;;;;5056427;28;20467;-44
2023/05/07 07:24:18;;;;;;;6.10;5.03;;;;;;;;;;5050486;28;20434;-44
2023/05/07 07:26:45;;;;;;;6.20;5.50;;;;;;;;;;5055144;28;20427;-44
2023/05/07 07:29:10;;;;;;;6.30;5.57;;;;;;;;;;5059300;28;20410;-44
2023/05/07 07:31:36;;;;;;;5.93;4.40;;;;;;;;;;5053820;27;20404;-44
2023/05/07 07:34:02;;;;;;;5.50;4.90;;;;;;;;;;5057648;28;20536;-44
2023/05/07 07:36:28;;;;;;;7.27;4.80;;;;;;;;;;5059794;27;20422;-44
2023/05/07 07:38:54;;;;;;;7.00;4.60;;;;;;;;;;5054540;28;20460;-44
2023/05/07 07:41:21;;;;;;;5.60;4.67;;;;;;;;;;5059186;27;20423;-45
2023/05/07 07:43:47;;;;;;;5.23;4.47;;;;;;;;;;5057952;28;20430;-45
2023/05/07 07:46:13;;;;;;;5.43;4.07;;;;;;;;;;5051837;28;20409;-45
2023/05/07 07:48:39;;;;;;;5.30;4.80;;;;;;;;;;5059406;27;20412;-45
2023/05/07 07:51:05;;;;;;;6.43;4.80;;;;;;;;;;5054925;27;20919;-46
2023/05/07 07:53:31;;;;;;;4.50;4.10;;;;;;;;;;5056302;27;20561;-44
2023/05/07 07:55:57;;;;;;;6.27;4.67;;;;;;;;;;5057004;28;20946;-44
2023/05/07 07:58:24;;;;;;;5.07;3.97;;;;;;;;;;5058955;27;20801;-44
2023/05/07 08:00:50;;;;;;;5.00;3.97;;;;;;;;;;5060089;28;20450;-44
2023/05/07 08:03:16;;;;;;;5.77;4.67;;;;;;;;;;5058862;28;20447;-44
2023/05/07 08:05:43;;;;;;;5.40;4.87;;;;;;;;;;5064071;28;20788;-44
2023/05/07 08:08:09;;;;;;;4.73;4.10;;;;;;;;;;5058383;27;20445;-45
2023/05/07 08:10:38;;;;;;;4.67;4.17;;;;;;;;;;5056622;28;20413;-46
2023/05/07 08:13:04;;;;;;;6.20;4.43;;;;;;;;;;5059486;28;20456;-44
2023/05/07 08:15:30;;;;;;;4.10;3.67;;;;;;;;;;5059081;28;20522;-44
2023/05/07 08:17:57;;;;;;;5.40;4.50;;;;;;;;;;5059929;28;20468;-44
2023/05/07 08:20:23;;;;;;;4.43;4.03;;;;;;;;;;5061785;28;20449;-44
2023/05/07 08:22:49;;;;;;;5.03;4.53;;;;;;;;;;5060117;28;20784;-44
2023/05/07 08:25:15;;;;;;;4.80;4.30;;;;;;;;;;5056816;28;20409;-44
2023/05/07 08:27:41;;;;;;;7.50;4.87;;;;;;;;;;5056388;27;20458;-44
2023/05/07 08:30:07;;;;;;;6.40;4.27;;;;;;;;;;5061294;28;20840;-45
2023/05/07 08:32:33;;;;;;;6.47;5.57;;;;;;;;;;5062076;27;20800;-44
2023/05/07 08:35:00;;;;;;;5.40;4.43;;;;;;;;;;5060309;28;20418;-44
2023/05/07 08:37:26;;;;;;;5.93;4.30;;;;;;;;;;5061375;27;20424;-44
2023/05/07 08:39:52;;;;;;;11.73;5.03;;;;;;;;;;5061139;28;20412;-44
2023/05/07 08:42:19;;;;;;;7.47;6.23;;;;;;;;;;5055265;28;20448;-45
2023/05/07 08:44:49;;;;;;;6.40;4.83;;;;;;;;;;5061927;27;20433;-44
2023/05/07 08:47:15;;;;;;;6.73;4.90;;;;;;;;;;5051885;28;20449;-44
2023/05/07 08:49:41;;;;;;;6.03;4.40;;;;;;;;;;5059286;27;20408;-44
2023/05/07 08:52:07;;;;;;;6.03;4.20;;;;;;;;;;5059805;28;20456;-47
2023/05/07 08:54:34;;;;;;;4.53;4.13;;;;;;;;;;5057280;28;20449;-44
2023/05/07 08:57:00;;;;;;;5.40;3.73;;;;;;;;;;5059216;28;20427;-44
2023/05/07 08:59:26;;;;;;;9.27;4.43;;;;;;;;;;5058399;28;20418;-44
2023/05/07 09:01:52;;;;;;;4.57;4.17;;;;;;;;;;5064200;28;20419;-44
2023/05/07 09:04:18;;;;;;;5.63;4.83;;;;;;;;;;5058121;28;20922;-44
2023/05/07 09:06:44;;;;;;;5.47;4.73;;;;;;;;;;5056753;27;20928;-45
2023/05/07 09:09:14;;;;;;;5.63;3.80;;;;;;;;;;5058811;28;20524;-44
2023/05/07 09:11:40;;;;;;;7.40;4.37;;;;;;;;;;5057602;28;20405;-45
2023/05/07 09:14:06;;;;;;;5.97;5.17;;;;;;;;;;5060584;27;20908;-44
2023/05/07 09:16:32;;;;;;;6.00;3.90;;;;;;;;;;5061619;27;20802;-44
2023/05/07 09:19:00;;;;;;;6.50;5.87;;;;;;;;;;5062660;28;20756;-44
2023/05/07 09:21:27;;;;;;;5.83;4.80;;;;;;;;;;5051226;28;20483;-44
2023/05/07 09:23:54;;;;;;;9.80;5.13;;;;;;;;;;5057479;28;20946;-44
2023/05/07 09:26:23;;;;;;;5.07;4.50;;;;;;;;;;5061536;27;20404;-44
2023/05/07 09:28:50;;;;;;;5.00;4.50;;;;;;;;;;5061483;27;20427;-45
2023/05/07 09:31:16;;;;;;;8.07;6.00;;;;;;;;;;5066987;28;20408;-46
2023/05/07 09:33:42;;;;;;;4.20;3.53;;;;;;;;;;5041249;28;20473;-46
2023/05/07 09:36:09;;;;;;;5.37;4.40;;;;;;;;;;5030389;28;20399;-45
2023/05/07 09:38:36;;;;;;;6.30;4.67;;;;;;;;;;5029803;28;20965;-44
2023/05/07 09:41:09;;;;;;;11.43;4.60;;;;;;;;;;5029752;28;20441;-44
2023/05/07 09:43:35;;;;;;;4.40;3.97;;;;;;;;;;5029509;28;20922;-48
2023/05/07 09:46:03;;;;;;;5.50;3.77;;;;;;;;;;5029362;28;20414;-45
2023/05/07 09:48:30;;;;;;;6.20;5.50;;;;;;;;;;5028428;28;20405;-45
2023/05/07 09:51:00;;;;;;;5.33;4.53;;;;;;;;;;5029624;28;20403;-44
2023/05/07 09:53:26;;;;;;;7.23;6.30;;;;;;;;;;5045202;28;20465;-47
2023/05/07 09:55:52;;;;;;;6.67;5.80;;;;;;;;;;5046012;28;20461;-47
2023/05/07 09:58:19;;;;;;;5.40;4.90;;;;;;;;;;5053922;27;20405;-46
2023/05/07 10:00:46;;;;;;;9.30;5.23;;;;;;;;;;5049067;28;20409;-44
2023/05/07 10:03:14;;;;;;;5.43;3.97;;;;;;;;;;5048920;28;20440;-44
2023/05/07 10:05:40;;;;;;;6.90;6.13;;;;;;;;;;5049009;28;20429;-45
2023/05/07 10:08:06;;;;;;;8.83;6.13;;;;;;;;;;5048931;28;20417;-44
2023/05/07 10:10:33;;;;;;;8.93;6.20;;;;;;;;;;5049293;27;20424;-44
2023/05/07 10:12:59;;;;;;;7.67;5.93;;;;;;;;;;5048719;28;20559;-47
2023/05/07 10:15:26;;;;;;;6.40;5.80;;;;;;;;;;5049122;27;20420;-44
2023/05/07 10:17:52;;;;;;;9.00;5.03;;;;;;;;;;5048889;28;20460;-47
2023/05/07 10:20:18;;;;;;;5.83;5.27;;;;;;;;;;5047896;28;20707;-44
2023/05/07 10:22:45;;;;;;;4.53;4.13;;;;;;;;;;5047556;28;20509;-44
2023/05/07 10:25:19;;;;;;;6.70;6.00;;;;;;;;;;5049045;27;20829;-44
2023/05/07 10:27:47;;;;;;;6.27;5.67;;;;;;;;;;5048931;27;20453;-46
2023/05/07 10:30:19;;;;;;;5.70;5.10;;;;;;;;;;5048936;27;20958;-44
2023/05/07 10:32:54;;;;;;;4.63;4.23;;;;;;;;;;5048532;27;20461;-47
2023/05/07 10:35:30;;;;;;;6.17;5.47;;;;;;;;;;5048631;27;20896;-45
2023/05/07 10:37:56;;;;;;;6.00;4.47;;;;;;;;;;5048600;28;20405;-44
2023/05/07 10:40:22;;;;;;;9.60;4.40;;;;;;;;;;5048862;27;20424;-47
2023/05/07 10:42:59;;;;;;;6.93;5.00;;;;;;;;;;5048656;27;20398;-46
2023/05/07 10:45:25;;;;;;;8.83;5.33;;;;;;;;;;5048579;28;20417;-45
2023/05/07 10:48:06;;;;;;;5.00;4.50;;;;;;;;;;5048449;27;20768;-45
2023/05/07 10:50:32;;;;;;;5.27;4.73;;;;;;;;;;5048606;27;20819;-44
2023/05/07 10:53:22;;;;;;;7.80;6.73;;;;;;;;;;5046154;28;20472;-44
2023/05/07 10:55:52;;;;;;;5.50;3.70;;;;;;;;;;5053159;28;20925;-44
2023/05/07 10:58:27;;;;;;;7.20;6.50;;;;;;;;;;5047410;28;20487;-44
2023/05/07 11:00:57;;;;;;;8.87;4.67;;;;;;;;;;5052759;27;20810;-44
2023/05/07 11:03:23;;;;;;;4.90;4.20;;;;;;;;;;5059778;27;20436;-44
2023/05/07 11:06:08;;;;;;;5.37;4.63;;;;;;;;;;5057628;27;20508;-44
2023/05/07 11:08:52;;;;;;;7.73;5.37;;;;;;;;;;5059990;27;20442;-45
2023/05/07 11:11:22;;;;;;;4.60;4.10;;;;;;;;;;5068559;27;20407;-44
2023/05/07 11:13:49;;;;;;;5.60;4.20;;;;;;;;;;5068303;27;20471;-44
2023/05/07 11:16:22;;;;;;;4.77;4.30;;;;;;;;;;5068286;28;20405;-46
2023/05/07 11:18:49;;;;;;;6.00;5.00;;;;;;;;;;5068343;28;20409;-44
2023/05/07 11:21:31;;;;;;;8.03;5.20;;;;;;;;;;5058561;28;20446;-44
2023/05/07 11:23:58;;;;;;;4.83;4.10;;;;;;;;;;5048174;28;20456;-44
2023/05/07 11:26:25;;;;;;;8.03;5.17;;;;;;;;;;5048389;28;20405;-45
2023/05/07 11:28:51;;;;;;;5.17;4.67;;;;;;;;;;5048290;28;20413;-44
2023/05/07 11:31:21;;;;;;;9.37;5.07;;;;;;;;;;5048699;28;20409;-44
2023/05/07 11:33:47;;;;;;;6.00;5.13;;;;;;;;;;5051399;28;20495;-45
2023/05/07 11:36:13;;;;;;;5.80;4.83;;;;;;;;;;5051828;28;20530;-45
2023/05/07 11:38:39;;;;;;;6.07;5.33;;;;;;;;;;5051748;28;20412;-47
2023/05/07 11:41:05;;;;;;;14.33;9.70;;;;;;;;;;5049747;28;20399;-46
2023/05/07 11:43:32;;;;;;;6.00;5.33;;;;;;;;;;5042693;28;20523;-44
2023/05/07 11:46:08;;;;;;;5.83;5.10;;;;;;;;;;5031541;28;20398;-44
2023/05/07 11:48:34;;;;;;;8.23;7.23;;;;;;;;;;5031490;28;20407;-44
2023/05/07 11:51:02;;;;;;;6.20;5.37;;;;;;;;;;5034299;28;20453;-44
2023/05/07 11:53:29;;;;;;;7.70;6.13;;;;;;;;;;5051101;28;20552;-44
2023/05/07 11:55:57;;;;;;;8.10;5.90;;;;;;;;;;5050509;28;20911;-46
2023/05/07 11:58:25;;;;;;;6.87;5.63;;;;;;;;;;5051241;28;20431;-44
2023/05/07 12:00:51;;;;;;;8.27;5.83;;;;;;;;;;5051347;28;20401;-46
2023/05/07 12:03:20;;;;;;;9.00;6.63;;;;;;;;;;5050919;28;20486;-44
2023/05/07 12:05:46;;;;;;;6.60;5.60;;;;;;;;;;5051205;28;20402;-44
2023/05/07 12:08:15;;;;;;;7.73;6.00;;;;;;;;;;5051187;28;20403;-44
2023/05/07 12:10:42;;;;;;;9.93;6.63;;;;;;;;;;5051297;28;20409;-43
2023/05/07 12:13:17;;;;;;;8.07;6.47;;;;;;;;;;5050794;28;20519;-45
2023/05/07 12:15:44;;;;;;;8.43;7.10;;;;;;;;;;5051273;28;20416;-44
2023/05/07 12:18:10;;;;;;;6.90;5.93;;;;;;;;;;5050991;28;20844;-44
2023/05/07 12:20:37;;;;;;;6.33;5.53;;;;;;;;;;5050941;28;20770;-44
2023/05/07 12:23:03;;;;;;;13.73;6.53;;;;;;;;;;5048096;28;20567;-44
2023/05/07 12:25:36;;;;;;;5.63;4.77;;;;;;;;;;5050898;28;20888;-45
2023/05/07 12:28:05;;;;;;;7.63;6.47;;;;;;;;;;5050853;28;20445;-44
2023/05/07 12:30:37;;;;;;;9.60;6.03;;;;;;;;;;5050897;28;20401;-44
2023/05/07 12:33:03;;;;;;;6.63;5.33;;;;;;;;;;5050508;28;20453;-44
2023/05/07 12:35:33;;;;;;;10.27;5.00;;;;;;;;;;5050706;28;20404;-44
2023/05/07 12:38:03;;;;;;;6.53;5.43;;;;;;;;;;5050678;28;20401;-44
2023/05/07 12:40:39;;;;;;;7.73;6.03;;;;;;;;;;5050714;28;20483;-43
2023/05/07 12:43:05;;;;;;;5.53;5.00;;;;;;;;;;5049634;28;20429;-44
2023/05/07 12:45:31;;;;;;;5.73;4.80;;;;;;;;;;5041882;28;20830;-44
2023/05/07 12:48:02;;;;;;;7.57;5.70;;;;;;;;;;5031264;28;20406;-44
2023/05/07 12:50:31;;;;;;;9.83;7.10;;;;;;;;;;5029731;28;20403;-46
2023/05/07 12:52:58;;;;;;;10.23;7.20;;;;;;;;;;5036549;28;20972;-45
2023/05/07 12:55:24;;;;;;;8.70;6.30;;;;;;;;;;5049095;28;20511;-44
2023/05/07 12:57:51;;;;;;;7.73;6.53;;;;;;;;;;5048844;28;20399;-47
2023/05/07 13:00:17;;;;;;;5.93;5.33;;;;;;;;;;5050333;28;20486;-44
2023/05/07 13:02:44;;;;;;;8.03;6.40;;;;;;;;;;5049984;28;20916;-44
2023/05/07 13:05:10;;;;;;;9.47;7.10;;;;;;;;;;5050215;28;20988;-44
2023/05/07 13:07:36;;;;;;;7.37;5.90;;;;;;;;;;5050526;28;20470;-44
2023/05/07 13:10:03;;;;;;;7.97;7.20;;;;;;;;;;5046069;28;20417;-44
2023/05/07 13:12:29;;;;;;;10.80;8.40;;;;;;;;;;5048414;28;20572;-46
2023/05/07 13:14:55;;;;;;;9.43;6.97;;;;;;;;;;5050100;28;20426;-47
2023/05/07 13:17:21;;;;;;;10.73;6.33;;;;;;;;;;5049838;28;20822;-47
2023/05/07 13:19:47;;;;;;;10.37;7.43;;;;;;;;;;5049675;28;20496;-46
2023/05/07 13:22:13;;;;;;;9.30;7.27;;;;;;;;;;5049555;28;20751;-46
2023/05/07 13:24:41;;;;;;;8.10;7.23;;;;;;;;;;5049267;28;20466;-46
2023/05/07 13:27:07;;;;;;;9.37;7.30;;;;;;;;;;5049899;28;20885;-46
2023/05/07 13:29:33;;;;;;;8.03;7.20;;;;;;;;;;5048721;28;20455;-45
2023/05/07 13:31:59;;;;;;;6.97;5.80;;;;;;;;;;5049857;28;20404;-46
2023/05/07 13:34:25;;;;;;;6.93;6.23;;;;;;;;;;5049574;28;20909;-46
2023/05/07 13:36:51;;;;;;;7.33;6.03;;;;;;;;;;5049668;28;20433;-45
2023/05/07 13:39:17;;;;;;;6.23;5.57;;;;;;;;;;5049792;28;20401;-47
2023/05/07 13:41:43;;;;;;;6.57;5.33;;;;;;;;;;5049770;28;20769;-46
2023/05/07 13:44:09;;;;;;;6.37;5.17;;;;;;;;;;5049520;28;20482;-47
2023/05/07 13:46:35;;;;;;;7.27;6.40;;;;;;;;;;5049631;28;20909;-45
2023/05/07 13:49:01;;;;;;;8.67;6.60;;;;;;;;;;5049660;28;20872;-46
2023/05/07 13:51:27;;;;;;;9.93;6.20;;;;;;;;;;5049904;28;20488;-46
2023/05/07 13:53:54;;;;;;;7.13;6.07;;;;;;;;;;5049232;28;20924;-46
2023/05/07 13:56:21;;;;;;;7.20;6.40;;;;;;;;;;5047561;28;20425;-46
2023/05/07 13:58:46;;;;;;;7.43;6.10;;;;;;;;;;5040711;28;20539;-47
2023/05/07 14:01:12;;;;;;;9.47;6.87;;;;;;;;;;5033862;28;20502;-46
2023/05/07 14:03:39;;;;;;;7.83;7.03;;;;;;;;;;5049139;28;20425;-47
2023/05/07 14:06:05;;;;;;;8.70;6.37;;;;;;;;;;5049469;28;20398;-46
2023/05/07 14:08:31;;;;;;;8.27;6.53;;;;;;;;;;5049334;28;20923;-46
2023/05/07 14:10:57;;;;;;;10.67;7.30;;;;;;;;;;5049355;28;20402;-46
2023/05/07 14:13:23;;;;;;;7.27;6.57;;;;;;;;;;5048907;28;20814;-45
2023/05/07 14:15:49;;;;;;;6.67;5.97;;;;;;;;;;5049090;28;20408;-46
2023/05/07 14:18:16;;;;;;;7.00;6.30;;;;;;;;;;5049103;28;20409;-46
2023/05/07 14:20:43;;;;;;;8.83;6.63;;;;;;;;;;5049023;28;20442;-45
2023/05/07 14:23:09;;;;;;;7.70;6.43;;;;;;;;;;5048992;28;20452;-47
2023/05/07 14:25:36;;;;;;;8.60;7.40;;;;;;;;;;5047380;28;20560;-46
2023/05/07 14:28:02;;;;;;;8.17;6.50;;;;;;;;;;5049018;28;20430;-46
2023/05/07 14:30:28;;;;;;;8.03;7.23;;;;;;;;;;5049155;28;20462;-46
2023/05/07 14:32:54;;;;;;;14.53;7.40;;;;;;;;;;5048579;28;20455;-46